createdAt,value
2018-05-02T00:00:05.463Z,994.04
2018-05-02T00:01:05.497Z,994.07
2018-05-02T00:02:05.524Z,994.05
2018-05-02T00:03:05.554Z,994.05
2018-05-02T00:04:05.584Z,994.06
2018-05-02T00:05:05.614Z,994.04
2018-05-02T00:06:05.644Z,994.05
2018-05-02T00:07:05.675Z,994.06
2018-05-02T00:08:05.704Z,994.06
2018-05-02T00:09:05.735Z,993.99
2018-05-02T00:10:05.770Z,993.99
2018-05-02T00:11:05.793Z,993.97
2018-05-02T00:12:05.829Z,994.02
2018-05-02T00:13:05.859Z,993.97
2018-05-02T00:14:05.884Z,993.95
2018-05-02T00:15:05.916Z,994.03
2018-05-02T00:16:05.945Z,994.03
2018-05-02T00:17:05.974Z,994.04
2018-05-02T00:18:06.024Z,994.02
2018-05-02T00:19:06.035Z,993.99
2018-05-02T00:20:06.064Z,993.99
2018-05-02T00:21:06.094Z,993.98
2018-05-02T00:22:06.127Z,994.00
2018-05-02T00:23:06.157Z,993.97
2018-05-02T00:24:06.184Z,993.94
2018-05-02T00:25:06.214Z,993.91
2018-05-02T00:26:06.243Z,993.93
2018-05-02T00:27:06.274Z,994.00
2018-05-02T00:28:06.303Z,993.93
2018-05-02T00:29:06.335Z,993.92
2018-05-02T00:30:06.364Z,993.90
2018-05-02T00:31:06.394Z,993.93
2018-05-02T00:32:06.423Z,993.93
2018-05-02T00:33:06.453Z,993.96
2018-05-02T00:34:06.538Z,993.98
2018-05-02T00:35:06.514Z,993.94
2018-05-02T00:36:06.543Z,993.96
2018-05-02T00:37:06.575Z,993.95
2018-05-02T00:38:06.604Z,993.90
2018-05-02T00:39:06.634Z,993.86
2018-05-02T00:40:06.663Z,993.85
2018-05-02T00:41:06.694Z,993.88
2018-05-02T00:42:06.724Z,993.78
2018-05-02T00:43:06.753Z,993.73
2018-05-02T00:44:06.783Z,993.72
2018-05-02T00:45:06.814Z,993.72
2018-05-02T00:46:06.843Z,993.76
2018-05-02T00:47:06.874Z,993.75
2018-05-02T00:48:06.903Z,993.75
2018-05-02T00:49:06.934Z,993.74
2018-05-02T00:50:06.965Z,993.69
2018-05-02T00:51:06.995Z,993.64
2018-05-02T00:52:07.024Z,993.69
2018-05-02T00:53:07.055Z,993.63
2018-05-02T00:54:07.086Z,993.63
2018-05-02T00:55:07.116Z,993.63
2018-05-02T00:56:07.145Z,993.62
2018-05-02T00:57:07.175Z,993.64
2018-05-02T00:58:07.204Z,993.65
2018-05-02T00:59:07.236Z,993.68
2018-05-02T01:00:07.264Z,993.67
2018-05-02T01:01:07.297Z,993.63
2018-05-02T01:02:07.326Z,993.63
2018-05-02T01:03:07.357Z,993.57
2018-05-02T01:04:07.388Z,993.56
2018-05-02T01:05:07.417Z,993.58
2018-05-02T01:06:07.448Z,993.54
2018-05-02T01:07:07.478Z,993.56
2018-05-02T01:08:07.508Z,993.51
2018-05-02T01:09:07.540Z,993.48
2018-05-02T01:10:07.573Z,993.48
2018-05-02T01:11:07.600Z,993.48
2018-05-02T01:12:07.630Z,993.44
2018-05-02T01:13:07.660Z,993.37
2018-05-02T01:14:07.691Z,993.36
2018-05-02T01:15:07.721Z,993.31
2018-05-02T01:16:07.755Z,993.31
2018-05-02T01:17:07.781Z,993.35
2018-05-02T01:18:07.812Z,993.36
2018-05-02T01:19:07.843Z,993.38
2018-05-02T01:20:07.873Z,993.42
2018-05-02T01:21:07.904Z,993.47
2018-05-02T01:22:07.933Z,993.52
2018-05-02T01:23:07.965Z,993.48
2018-05-02T01:24:07.993Z,993.50
2018-05-02T01:25:08.025Z,993.48
2018-05-02T01:26:08.060Z,993.42
2018-05-02T01:27:08.157Z,993.38
2018-05-02T01:28:08.116Z,993.30
2018-05-02T01:29:08.147Z,993.31
2018-05-02T01:30:08.177Z,993.26
2018-05-02T01:31:08.208Z,993.25
2018-05-02T01:32:08.237Z,993.19
2018-05-02T01:33:08.270Z,993.18
2018-05-02T01:34:08.301Z,993.14
2018-05-02T01:35:08.332Z,993.12
2018-05-02T01:36:08.362Z,993.12
2018-05-02T01:37:08.392Z,993.13
2018-05-02T01:38:08.421Z,993.18
2018-05-02T01:39:08.453Z,993.23
2018-05-02T01:40:08.482Z,993.21
2018-05-02T01:41:08.512Z,993.21
2018-05-02T01:42:08.542Z,993.19
2018-05-02T01:43:08.574Z,993.15
2018-05-02T01:44:08.604Z,993.14
2018-05-02T01:45:08.644Z,993.17
2018-05-02T01:46:08.668Z,993.15
2018-05-02T01:47:08.697Z,993.17
2018-05-02T01:48:08.727Z,993.13
2018-05-02T01:49:08.758Z,993.20
2018-05-02T01:50:08.790Z,993.23
2018-05-02T01:51:08.821Z,993.12
2018-05-02T01:52:08.851Z,993.16
2018-05-02T01:53:08.880Z,993.16
2018-05-02T01:54:08.911Z,993.21
2018-05-02T01:55:08.941Z,993.19
2018-05-02T01:56:08.972Z,993.20
2018-05-02T01:57:09.003Z,993.17
2018-05-02T01:58:09.034Z,993.15
2018-05-02T01:59:09.063Z,993.12
2018-05-02T02:00:09.094Z,993.14
2018-05-02T02:01:09.126Z,993.11
2018-05-02T02:02:09.155Z,993.17
2018-05-02T02:03:09.191Z,993.13
2018-05-02T02:04:09.217Z,993.16
2018-05-02T02:05:09.246Z,993.13
2018-05-02T02:06:09.278Z,993.17
2018-05-02T02:07:09.309Z,993.12
2018-05-02T02:08:09.339Z,993.16
2018-05-02T02:09:09.370Z,993.16
2018-05-02T02:10:09.401Z,993.14
2018-05-02T02:11:09.434Z,993.10
2018-05-02T02:12:09.463Z,993.12
2018-05-02T02:13:09.493Z,993.09
2018-05-02T02:14:09.524Z,993.13
2018-05-02T02:15:09.555Z,993.12
2018-05-02T02:16:09.585Z,993.11
2018-05-02T02:17:09.617Z,993.12
2018-05-02T02:18:09.647Z,993.11
2018-05-02T02:19:09.679Z,993.10
2018-05-02T02:20:09.709Z,993.07
2018-05-02T02:21:09.740Z,993.06
2018-05-02T02:22:09.773Z,993.09
2018-05-02T02:23:09.802Z,993.10
2018-05-02T02:24:09.836Z,993.07
2018-05-02T02:25:09.863Z,993.09
2018-05-02T02:26:09.894Z,993.10
2018-05-02T02:27:09.925Z,993.10
2018-05-02T02:28:09.955Z,993.09
2018-05-02T02:29:09.985Z,993.08
2018-05-02T02:30:10.022Z,993.06
2018-05-02T02:31:10.054Z,993.12
2018-05-02T02:32:10.080Z,993.07
2018-05-02T02:33:10.111Z,993.12
2018-05-02T02:34:10.142Z,993.08
2018-05-02T02:35:10.173Z,993.01
2018-05-02T02:36:10.204Z,993.07
2018-05-02T02:37:10.233Z,993.01
2018-05-02T02:38:10.265Z,993.00
2018-05-02T02:39:10.297Z,993.04
2018-05-02T02:40:10.328Z,992.99
2018-05-02T02:41:10.358Z,993.00
2018-05-02T02:42:10.389Z,993.01
2018-05-02T02:43:10.420Z,992.97
2018-05-02T02:44:10.449Z,992.96
2018-05-02T02:45:10.481Z,992.99
2018-05-02T02:46:10.513Z,993.00
2018-05-02T02:47:10.543Z,992.96
2018-05-02T02:48:10.575Z,993.02
2018-05-02T02:49:10.605Z,993.00
2018-05-02T02:50:10.637Z,993.01
2018-05-02T02:51:10.667Z,993.03
2018-05-02T02:52:10.700Z,993.08
2018-05-02T02:53:10.729Z,993.12
2018-05-02T02:54:10.760Z,993.08
2018-05-02T02:55:10.858Z,993.05
2018-05-02T02:56:10.825Z,993.03
2018-05-02T02:57:10.852Z,993.01
2018-05-02T02:58:10.882Z,993.08
2018-05-02T02:59:10.915Z,993.06
2018-05-02T03:00:10.945Z,993.08
2018-05-02T03:01:10.976Z,993.11
2018-05-02T03:02:11.007Z,993.04
2018-05-02T03:03:11.039Z,993.04
2018-05-02T03:04:11.067Z,993.05
2018-05-02T03:05:11.103Z,993.11
2018-05-02T03:06:11.130Z,993.07
2018-05-02T03:07:11.161Z,993.06
2018-05-02T03:08:11.191Z,993.05
2018-05-02T03:09:11.223Z,993.09
2018-05-02T03:10:11.254Z,993.10
2018-05-02T03:11:11.285Z,993.08
2018-05-02T03:12:11.316Z,993.09
2018-05-02T03:13:11.347Z,993.06
2018-05-02T03:14:11.378Z,993.10
2018-05-02T03:15:11.409Z,993.06
2018-05-02T03:16:11.438Z,993.08
2018-05-02T03:17:11.471Z,993.00
2018-05-02T03:18:11.502Z,993.06
2018-05-02T03:19:11.532Z,993.03
2018-05-02T03:20:11.563Z,993.01
2018-05-02T03:21:11.593Z,993.06
2018-05-02T03:22:11.625Z,993.09
2018-05-02T03:23:11.657Z,993.02
2018-05-02T03:24:11.686Z,993.04
2018-05-02T03:25:11.718Z,993.05
2018-05-02T03:26:11.749Z,993.08
2018-05-02T03:27:11.780Z,993.08
2018-05-02T03:28:11.810Z,992.98
2018-05-02T03:29:11.841Z,993.04
2018-05-02T03:30:11.873Z,993.04
2018-05-02T03:31:11.907Z,993.00
2018-05-02T03:32:11.934Z,993.05
2018-05-02T03:33:11.966Z,993.05
2018-05-02T03:34:11.996Z,993.06
2018-05-02T03:35:12.035Z,993.02
2018-05-02T03:36:12.058Z,992.97
2018-05-02T03:37:12.090Z,992.98
2018-05-02T03:38:12.121Z,992.94
2018-05-02T03:39:12.153Z,992.90
2018-05-02T03:40:12.183Z,992.93
2018-05-02T03:41:12.215Z,992.91
2018-05-02T03:42:12.247Z,992.87
2018-05-02T03:43:12.277Z,992.88
2018-05-02T03:44:12.307Z,992.86
2018-05-02T03:45:12.338Z,992.86
2018-05-02T03:46:12.370Z,992.83
2018-05-02T03:47:12.400Z,992.82
2018-05-02T03:48:12.432Z,992.85
2018-05-02T03:49:12.463Z,992.81
2018-05-02T03:50:12.495Z,992.80
2018-05-02T03:51:12.526Z,992.80
2018-05-02T03:52:12.557Z,992.79
2018-05-02T03:53:12.589Z,992.80
2018-05-02T03:54:12.620Z,992.79
2018-05-02T03:55:12.650Z,992.77
2018-05-02T03:56:12.681Z,992.74
2018-05-02T03:57:12.712Z,992.73
2018-05-02T03:58:12.745Z,992.75
2018-05-02T03:59:12.774Z,992.77
2018-05-02T04:00:12.857Z,992.76
2018-05-02T04:01:12.836Z,992.81
2018-05-02T04:02:12.869Z,992.81
2018-05-02T04:03:12.900Z,992.79
2018-05-02T04:04:12.929Z,992.79
2018-05-02T04:05:12.960Z,992.79
2018-05-02T04:06:12.992Z,992.75
2018-05-02T04:07:13.024Z,992.79
2018-05-02T04:08:13.054Z,992.80
2018-05-02T04:09:13.086Z,992.80
2018-05-02T04:10:13.117Z,992.81
2018-05-02T04:11:13.148Z,992.82
2018-05-02T04:12:13.179Z,992.79
2018-05-02T04:13:13.213Z,992.79
2018-05-02T04:14:13.242Z,992.81
2018-05-02T04:15:13.273Z,992.79
2018-05-02T04:16:13.303Z,992.82
2018-05-02T04:17:13.340Z,992.78
2018-05-02T04:18:13.366Z,992.82
2018-05-02T04:19:13.399Z,992.82
2018-05-02T04:20:13.428Z,992.82
2018-05-02T04:21:13.457Z,992.84
2018-05-02T04:22:13.494Z,992.83
2018-05-02T04:23:13.522Z,992.87
2018-05-02T04:24:13.551Z,992.86
2018-05-02T04:25:13.583Z,992.84
2018-05-02T04:26:13.615Z,992.86
2018-05-02T04:27:13.646Z,992.87
2018-05-02T04:28:13.677Z,992.88
2018-05-02T04:29:13.707Z,992.83
2018-05-02T04:30:13.740Z,992.90
2018-05-02T04:31:13.771Z,992.88
2018-05-02T04:32:13.800Z,992.91
2018-05-02T04:33:13.832Z,992.85
2018-05-02T04:34:13.863Z,992.88
2018-05-02T04:35:13.895Z,992.89
2018-05-02T04:36:13.925Z,992.89
2018-05-02T04:37:13.957Z,992.90
2018-05-02T04:38:13.988Z,992.86
2018-05-02T04:39:14.020Z,992.85
2018-05-02T04:40:14.049Z,992.86
2018-05-02T04:41:14.082Z,992.88
2018-05-02T04:42:14.112Z,992.86
2018-05-02T04:43:14.144Z,992.85
2018-05-02T04:44:14.173Z,992.87
2018-05-02T04:45:14.205Z,992.87
2018-05-02T04:46:14.235Z,992.85
2018-05-02T04:47:14.269Z,992.84
2018-05-02T04:48:14.374Z,992.83
2018-05-02T04:49:14.330Z,992.84
2018-05-02T04:50:14.361Z,992.84
2018-05-02T04:51:14.397Z,992.84
2018-05-02T04:52:14.424Z,992.87
2018-05-02T04:53:14.456Z,992.86
2018-05-02T04:54:14.486Z,992.87
2018-05-02T04:55:14.519Z,992.94
2018-05-02T04:56:14.548Z,992.95
2018-05-02T04:57:14.580Z,992.91
2018-05-02T04:58:14.611Z,992.95
2018-05-02T04:59:14.643Z,992.98
2018-05-02T05:00:14.673Z,992.95
2018-05-02T05:01:14.704Z,992.96
2018-05-02T05:02:14.736Z,992.98
2018-05-02T05:03:14.767Z,993.00
2018-05-02T05:04:14.797Z,992.96
2018-05-02T05:05:14.828Z,992.97
2018-05-02T05:06:14.860Z,992.97
2018-05-02T05:07:14.891Z,992.97
2018-05-02T05:08:14.921Z,992.98
2018-05-02T05:09:14.953Z,992.98
2018-05-02T05:10:14.984Z,992.99
2018-05-02T05:11:15.016Z,993.01
2018-05-02T05:12:15.129Z,992.97
2018-05-02T05:13:15.076Z,993.03
2018-05-02T05:14:15.107Z,992.99
2018-05-02T05:15:15.139Z,993.02
2018-05-02T05:16:15.169Z,993.04
2018-05-02T05:17:15.200Z,993.01
2018-05-02T05:18:15.230Z,993.06
2018-05-02T05:19:15.263Z,993.07
2018-05-02T05:20:15.291Z,993.11
2018-05-02T05:21:15.324Z,993.06
2018-05-02T05:22:15.355Z,993.10
2018-05-02T05:23:15.385Z,993.11
2018-05-02T05:24:15.415Z,993.10
2018-05-02T05:25:15.447Z,993.12
2018-05-02T05:26:15.476Z,993.19
2018-05-02T05:27:15.509Z,993.11
2018-05-02T05:28:15.608Z,993.15
2018-05-02T05:29:15.569Z,993.19
2018-05-02T05:30:15.601Z,993.15
2018-05-02T05:31:15.631Z,993.15
2018-05-02T05:32:15.661Z,993.19
2018-05-02T05:33:15.691Z,993.23
2018-05-02T05:34:15.723Z,993.24
2018-05-02T05:35:15.779Z,993.28
2018-05-02T05:36:15.792Z,993.24
2018-05-02T05:37:15.815Z,993.27
2018-05-02T05:38:15.846Z,993.30
2018-05-02T05:39:15.877Z,993.27
2018-05-02T05:40:15.907Z,993.31
2018-05-02T05:41:15.937Z,993.29
2018-05-02T05:42:15.968Z,993.31
2018-05-02T05:43:15.999Z,993.34
2018-05-02T05:44:16.028Z,993.29
2018-05-02T05:45:16.059Z,993.36
2018-05-02T05:46:16.091Z,993.33
2018-05-02T05:47:16.120Z,993.39
2018-05-02T05:48:16.151Z,993.40
2018-05-02T05:49:16.181Z,993.37
2018-05-02T05:50:16.212Z,993.34
2018-05-02T05:51:16.244Z,993.39
2018-05-02T05:52:16.275Z,993.37
2018-05-02T05:53:16.305Z,993.41
2018-05-02T05:54:16.394Z,993.42
2018-05-02T05:55:16.366Z,993.42
2018-05-02T05:56:16.397Z,993.37
2018-05-02T05:57:16.427Z,993.37
2018-05-02T05:58:16.459Z,993.37
2018-05-02T05:59:16.489Z,993.37
2018-05-02T06:00:16.520Z,993.41
2018-05-02T06:01:16.552Z,993.40
2018-05-02T06:02:16.586Z,993.40
2018-05-02T06:03:16.612Z,993.44
2018-05-02T06:04:16.644Z,993.47
2018-05-02T06:05:16.673Z,993.42
2018-05-02T06:06:16.706Z,993.46
2018-05-02T06:07:16.736Z,993.43
2018-05-02T06:08:16.773Z,993.45
2018-05-02T06:09:16.798Z,993.42
2018-05-02T06:10:16.833Z,993.41
2018-05-02T06:11:16.864Z,993.45
2018-05-02T06:12:16.891Z,993.49
2018-05-02T06:13:16.922Z,993.50
2018-05-02T06:14:16.983Z,993.51
2018-05-02T06:15:17.011Z,993.46
2018-05-02T06:16:17.015Z,993.44
2018-05-02T06:17:17.075Z,993.44
2018-05-02T06:18:17.076Z,993.36
2018-05-02T06:19:17.135Z,993.39
2018-05-02T06:20:17.165Z,993.39
2018-05-02T06:21:17.195Z,993.42
2018-05-02T06:22:17.223Z,993.42
2018-05-02T06:23:17.255Z,993.40
2018-05-02T06:24:17.289Z,993.41
2018-05-02T06:25:17.317Z,993.37
2018-05-02T06:26:17.437Z,993.41
2018-05-02T06:27:17.382Z,993.38
2018-05-02T06:28:17.451Z,993.40
2018-05-02T06:29:17.447Z,993.43
2018-05-02T06:30:17.451Z,993.41
2018-05-02T06:31:17.502Z,993.39
2018-05-02T06:32:17.533Z,993.43
2018-05-02T06:33:17.581Z,993.39
2018-05-02T06:34:17.576Z,993.39
2018-05-02T06:35:17.608Z,993.37
2018-05-02T06:36:17.639Z,993.39
2018-05-02T06:37:17.671Z,993.32
2018-05-02T06:38:17.702Z,993.36
2018-05-02T06:39:17.735Z,993.34
2018-05-02T06:40:17.765Z,993.32
2018-05-02T06:41:17.796Z,993.30
2018-05-02T06:42:17.828Z,993.32
2018-05-02T06:43:17.864Z,993.31
2018-05-02T06:44:17.892Z,993.28
2018-05-02T06:45:17.922Z,993.28
2018-05-02T06:46:17.955Z,993.21
2018-05-02T06:47:17.989Z,993.18
2018-05-02T06:48:18.019Z,993.18
2018-05-02T06:49:18.138Z,993.17
2018-05-02T06:50:18.139Z,993.15
2018-05-02T06:51:18.114Z,993.16
2018-05-02T06:52:18.146Z,993.16
2018-05-02T06:53:18.178Z,993.15
2018-05-02T06:54:18.209Z,993.16
2018-05-02T06:55:18.244Z,993.10
2018-05-02T06:56:18.273Z,993.13
2018-05-02T06:57:18.310Z,993.15
2018-05-02T06:58:18.339Z,993.09
2018-05-02T06:59:18.372Z,993.07
2018-05-02T07:00:18.402Z,993.08
2018-05-02T07:01:18.457Z,993.05
2018-05-02T07:02:18.467Z,993.03
2018-05-02T07:03:18.500Z,993.02
2018-05-02T07:04:18.530Z,993.04
2018-05-02T07:05:18.564Z,992.99
2018-05-02T07:06:18.596Z,993.02
2018-05-02T07:07:18.632Z,993.02
2018-05-02T07:08:18.659Z,993.03
2018-05-02T07:09:18.693Z,993.01
2018-05-02T07:10:18.725Z,992.96
2018-05-02T07:11:18.758Z,992.95
2018-05-02T07:12:18.789Z,992.95
2018-05-02T07:13:18.883Z,992.95
2018-05-02T07:14:18.853Z,992.99
2018-05-02T07:15:18.889Z,992.96
2018-05-02T07:16:18.918Z,992.97
2018-05-02T07:17:18.951Z,993.01
2018-05-02T07:18:18.983Z,993.00
2018-05-02T07:19:19.014Z,993.02
2018-05-02T07:20:19.046Z,992.97
2018-05-02T07:21:19.078Z,992.99
2018-05-02T07:22:19.111Z,992.97
2018-05-02T07:23:19.143Z,992.98
2018-05-02T07:24:19.176Z,992.96
2018-05-02T07:25:19.208Z,992.92
2018-05-02T07:26:19.240Z,992.93
2018-05-02T07:27:19.273Z,992.88
2018-05-02T07:28:19.305Z,992.87
2018-05-02T07:29:19.337Z,992.86
2018-05-02T07:30:19.370Z,992.81
2018-05-02T07:31:19.403Z,992.81
2018-05-02T07:32:19.434Z,992.81
2018-05-02T07:33:19.466Z,992.85
2018-05-02T07:34:19.499Z,992.83
2018-05-02T07:35:19.531Z,992.80
2018-05-02T07:36:19.569Z,992.83
2018-05-02T07:37:19.596Z,992.83
2018-05-02T07:38:19.628Z,992.84
2018-05-02T07:39:19.661Z,992.80
2018-05-02T07:40:19.694Z,992.82
2018-05-02T07:41:19.727Z,992.81
2018-05-02T07:42:19.759Z,992.81
2018-05-02T07:43:19.792Z,992.76
2018-05-02T07:44:19.823Z,992.74
2018-05-02T07:45:19.855Z,992.72
2018-05-02T07:46:19.889Z,992.83
2018-05-02T07:47:19.922Z,992.83
2018-05-02T07:48:19.954Z,992.77
2018-05-02T07:49:19.988Z,992.76
2018-05-02T07:50:20.021Z,992.76
2018-05-02T07:51:20.054Z,992.83
2018-05-02T07:52:20.085Z,992.84
2018-05-02T07:53:20.122Z,992.85
2018-05-02T07:54:20.151Z,992.80
2018-05-02T07:55:20.205Z,992.78
2018-05-02T07:56:20.240Z,992.76
2018-05-02T07:57:20.251Z,992.78
2018-05-02T07:58:20.283Z,992.76
2018-05-02T07:59:20.318Z,992.82
2018-05-02T08:00:20.351Z,992.77
2018-05-02T08:01:20.384Z,992.81
2018-05-02T08:02:20.416Z,992.85
2018-05-02T08:03:20.451Z,992.83
2018-05-02T08:04:20.482Z,992.86
2018-05-02T08:05:20.521Z,992.90
2018-05-02T08:06:20.552Z,992.91
2018-05-02T08:07:20.585Z,992.94
2018-05-02T08:08:20.617Z,992.92
2018-05-02T08:09:20.651Z,992.86
2018-05-02T08:10:20.684Z,992.90
2018-05-02T08:11:20.719Z,992.87
2018-05-02T08:12:20.751Z,992.87
2018-05-02T08:13:20.785Z,992.85
2018-05-02T08:14:20.820Z,992.89
2018-05-02T08:15:20.852Z,992.86
2018-05-02T08:16:20.916Z,992.88
2018-05-02T08:17:20.924Z,992.90
2018-05-02T08:18:20.953Z,992.81
2018-05-02T08:19:21.034Z,992.82
2018-05-02T08:20:21.022Z,992.85
2018-05-02T08:21:21.058Z,992.81
2018-05-02T08:22:21.094Z,992.82
2018-05-02T08:23:21.125Z,992.78
2018-05-02T08:24:21.158Z,992.80
2018-05-02T08:25:21.200Z,992.80
2018-05-02T08:26:21.242Z,992.77
2018-05-02T08:27:21.261Z,992.79
2018-05-02T08:28:21.294Z,992.80
2018-05-02T08:29:21.328Z,992.79
2018-05-02T08:30:21.367Z,992.76
2018-05-02T08:31:21.398Z,992.75
2018-05-02T08:32:21.434Z,992.76
2018-05-02T08:33:21.466Z,992.78
2018-05-02T08:34:21.501Z,992.76
2018-05-02T08:35:21.535Z,992.84
2018-05-02T08:36:21.569Z,992.80
2018-05-02T08:37:21.605Z,992.77
2018-05-02T08:38:21.639Z,992.80
2018-05-02T08:39:21.673Z,992.83
2018-05-02T08:40:21.708Z,992.80
2018-05-02T08:41:21.742Z,992.83
2018-05-02T08:42:21.786Z,992.82
2018-05-02T08:43:21.813Z,992.77
2018-05-02T08:44:21.847Z,992.81
2018-05-02T08:45:21.882Z,992.80
2018-05-02T08:46:21.917Z,992.81
2018-05-02T08:47:21.951Z,992.79
2018-05-02T08:48:21.985Z,992.83
2018-05-02T08:49:22.021Z,992.80
2018-05-02T08:50:22.057Z,992.78
2018-05-02T08:51:22.092Z,992.78
2018-05-02T08:52:22.124Z,992.78
2018-05-02T08:53:22.160Z,992.81
2018-05-02T08:54:22.195Z,992.79
2018-05-02T08:55:22.235Z,992.82
2018-05-02T08:56:22.265Z,992.80
2018-05-02T08:57:22.339Z,992.85
2018-05-02T08:58:22.336Z,992.83
2018-05-02T08:59:22.374Z,992.84
2018-05-02T09:00:22.407Z,992.80
2018-05-02T09:01:22.442Z,992.76
2018-05-02T09:02:22.483Z,992.77
2018-05-02T09:03:22.514Z,992.77
2018-05-02T09:04:22.547Z,992.74
2018-05-02T09:05:22.588Z,992.71
2018-05-02T09:06:22.619Z,992.76
2018-05-02T09:07:22.654Z,992.65
2018-05-02T09:08:22.690Z,992.68
2018-05-02T09:09:22.724Z,992.70
2018-05-02T09:10:22.764Z,992.64
2018-05-02T09:11:22.798Z,992.67
2018-05-02T09:12:22.832Z,992.65
2018-05-02T09:13:22.868Z,992.70
2018-05-02T09:14:22.907Z,992.69
2018-05-02T09:15:22.941Z,992.68
2018-05-02T09:16:22.975Z,992.70
2018-05-02T09:17:23.011Z,992.60
2018-05-02T09:18:23.048Z,992.65
2018-05-02T09:19:23.084Z,992.64
2018-05-02T09:20:23.120Z,992.62
2018-05-02T09:21:23.155Z,992.64
2018-05-02T09:22:23.191Z,992.62
2018-05-02T09:23:23.229Z,992.61
2018-05-02T09:24:23.264Z,992.61
2018-05-02T09:25:23.301Z,992.57
2018-05-02T09:26:23.337Z,992.57
2018-05-02T09:27:23.375Z,992.61
2018-05-02T09:28:23.409Z,992.61
2018-05-02T09:29:23.449Z,992.55
2018-05-02T09:30:23.483Z,992.59
2018-05-02T09:31:23.520Z,992.60
2018-05-02T09:32:23.556Z,992.63
2018-05-02T09:33:23.592Z,992.62
2018-05-02T09:34:23.630Z,992.62
2018-05-02T09:35:23.666Z,992.56
2018-05-02T09:36:23.702Z,992.60
2018-05-02T09:37:23.741Z,992.56
2018-05-02T09:38:23.779Z,992.57
2018-05-02T09:39:23.816Z,992.59
2018-05-02T09:40:23.852Z,992.60
2018-05-02T09:41:23.888Z,992.63
2018-05-02T09:42:23.926Z,992.57
2018-05-02T09:43:23.964Z,992.60
2018-05-02T09:44:24.002Z,992.60
2018-05-02T09:45:24.042Z,992.57
2018-05-02T09:46:24.078Z,992.53
2018-05-02T09:47:24.115Z,992.57
2018-05-02T09:48:24.154Z,992.57
2018-05-02T09:49:24.195Z,992.58
2018-05-02T09:50:24.230Z,992.53
2018-05-02T09:51:24.269Z,992.55
2018-05-02T09:52:24.304Z,992.57
2018-05-02T09:53:24.343Z,992.59
2018-05-02T09:54:24.380Z,992.54
2018-05-02T09:55:24.426Z,992.60
2018-05-02T09:56:24.461Z,992.53
2018-05-02T09:57:24.494Z,992.50
2018-05-02T09:58:24.534Z,992.51
2018-05-02T09:59:24.572Z,992.53
2018-05-02T10:00:24.609Z,992.58
2018-05-02T10:01:24.649Z,992.52
2018-05-02T10:02:24.688Z,992.53
2018-05-02T10:03:24.725Z,992.50
2018-05-02T10:04:24.796Z,992.48
2018-05-02T10:05:24.803Z,992.46
2018-05-02T10:06:24.842Z,992.46
2018-05-02T10:07:24.895Z,992.39
2018-05-02T10:08:24.918Z,992.41
2018-05-02T10:09:24.958Z,992.41
2018-05-02T10:10:24.997Z,992.35
2018-05-02T10:11:25.035Z,992.37
2018-05-02T10:12:25.145Z,992.32
2018-05-02T10:13:25.166Z,992.33
2018-05-02T10:14:25.151Z,992.35
2018-05-02T10:15:25.190Z,992.38
2018-05-02T10:16:25.228Z,992.35
2018-05-02T10:17:25.265Z,992.34
2018-05-02T10:18:25.378Z,992.34
2018-05-02T10:19:25.345Z,992.31
2018-05-02T10:20:25.380Z,992.36
2018-05-02T10:21:25.419Z,992.40
2018-05-02T10:22:25.459Z,992.40
2018-05-02T10:23:25.496Z,992.38
2018-05-02T10:24:25.543Z,992.34
2018-05-02T10:25:25.572Z,992.28
2018-05-02T10:26:25.614Z,992.27
2018-05-02T10:27:25.650Z,992.28
2018-05-02T10:28:25.689Z,992.25
2018-05-02T10:29:25.728Z,992.27
2018-05-02T10:30:25.767Z,992.28
2018-05-02T10:31:25.804Z,992.23
2018-05-02T10:32:25.843Z,992.23
2018-05-02T10:33:25.885Z,992.20
2018-05-02T10:34:25.919Z,992.26
2018-05-02T10:35:25.960Z,992.25
2018-05-02T10:36:25.998Z,992.23
2018-05-02T10:37:26.036Z,992.19
2018-05-02T10:38:26.076Z,992.17
2018-05-02T10:39:26.118Z,992.17
2018-05-02T10:40:26.153Z,992.09
2018-05-02T10:41:26.191Z,992.09
2018-05-02T10:42:26.231Z,992.11
2018-05-02T10:43:26.271Z,992.10
2018-05-02T10:44:26.308Z,992.08
2018-05-02T10:45:26.348Z,992.04
2018-05-02T10:46:26.388Z,992.02
2018-05-02T10:47:26.427Z,992.03
2018-05-02T10:48:26.465Z,992.04
2018-05-02T10:49:26.505Z,992.03
2018-05-02T10:50:26.582Z,992.02
2018-05-02T10:51:26.585Z,991.96
2018-05-02T10:52:26.623Z,991.97
2018-05-02T10:53:26.661Z,991.97
2018-05-02T10:54:26.705Z,991.94
2018-05-02T10:55:26.739Z,991.94
2018-05-02T10:56:26.779Z,991.94
2018-05-02T10:57:26.816Z,991.94
2018-05-02T10:58:26.857Z,991.98
2018-05-02T10:59:26.895Z,991.95
2018-05-02T11:00:26.932Z,992.01
2018-05-02T11:01:26.973Z,992.03
2018-05-02T11:02:27.011Z,992.09
2018-05-02T11:03:27.051Z,992.05
2018-05-02T11:04:27.089Z,992.02
2018-05-02T11:05:27.133Z,991.99
2018-05-02T11:06:27.169Z,991.98
2018-05-02T11:07:27.208Z,992.03
2018-05-02T11:08:27.416Z,992.00
2018-05-02T11:09:27.285Z,992.00
2018-05-02T11:10:27.324Z,991.95
2018-05-02T11:11:27.364Z,991.97
2018-05-02T11:12:27.401Z,991.93
2018-05-02T11:13:27.441Z,991.83
2018-05-02T11:14:27.480Z,991.86
2018-05-02T11:15:27.521Z,991.84
2018-05-02T11:16:27.558Z,991.88
2018-05-02T11:17:27.600Z,991.91
2018-05-02T11:18:27.637Z,991.99
2018-05-02T11:19:27.676Z,991.94
2018-05-02T11:20:27.716Z,991.95
2018-05-02T11:21:27.754Z,991.92
2018-05-02T11:22:27.795Z,992.00
2018-05-02T11:23:27.834Z,992.00
2018-05-02T11:24:27.874Z,991.97
2018-05-02T11:25:27.911Z,991.84
2018-05-02T11:26:27.951Z,991.84
2018-05-02T11:27:27.998Z,991.83
2018-05-02T11:28:28.081Z,991.80
2018-05-02T11:29:28.069Z,991.71
2018-05-02T11:30:28.108Z,991.74
2018-05-02T11:31:28.148Z,991.78
2018-05-02T11:32:28.186Z,991.82
2018-05-02T11:33:28.227Z,991.88
2018-05-02T11:34:28.266Z,991.97
2018-05-02T11:35:28.306Z,991.96
2018-05-02T11:36:28.345Z,991.93
2018-05-02T11:37:28.384Z,991.92
2018-05-02T11:38:28.423Z,991.97
2018-05-02T11:39:28.464Z,992.00
2018-05-02T11:40:28.533Z,992.09
2018-05-02T11:41:28.542Z,992.27
2018-05-02T11:42:28.593Z,992.28
2018-05-02T11:43:28.624Z,992.52
2018-05-02T11:44:28.668Z,992.23
2018-05-02T11:45:28.702Z,992.32
2018-05-02T11:46:28.746Z,992.19
2018-05-02T11:47:28.785Z,992.36
2018-05-02T11:48:28.825Z,993.32
2018-05-02T11:49:28.877Z,992.32
2018-05-02T11:50:28.911Z,992.32
2018-05-02T11:51:28.953Z,992.31
2018-05-02T11:52:28.997Z,992.27
2018-05-02T11:53:29.037Z,992.49
2018-05-02T11:54:29.081Z,992.29
2018-05-02T11:55:29.125Z,992.66
2018-05-02T11:56:29.167Z,992.48
2018-05-02T11:57:29.212Z,992.56
2018-05-02T11:58:29.259Z,992.68
2018-05-02T11:59:29.300Z,992.45
2018-05-02T12:00:29.343Z,992.72
2018-05-02T12:01:29.387Z,992.86
2018-05-02T12:02:29.486Z,992.94
2018-05-02T12:03:29.547Z,993.36
2018-05-02T12:04:29.524Z,992.80
2018-05-02T12:05:29.568Z,992.51
2018-05-02T12:06:29.614Z,992.48
2018-05-02T12:07:29.660Z,992.78
2018-05-02T12:08:29.706Z,992.82
2018-05-02T12:09:29.751Z,992.85
2018-05-02T12:10:29.881Z,992.97
2018-05-02T12:11:29.851Z,992.95
2018-05-02T12:12:29.892Z,992.92
2018-05-02T12:13:29.940Z,992.80
2018-05-02T12:14:29.987Z,993.17
2018-05-02T12:15:30.036Z,993.10
2018-05-02T12:16:30.083Z,993.06
2018-05-02T12:17:30.131Z,992.88
2018-05-02T12:18:30.180Z,992.70
2018-05-02T12:19:30.228Z,992.19
2018-05-02T12:20:30.276Z,992.08
2018-05-02T12:21:30.325Z,992.19
2018-05-02T12:22:30.373Z,992.03
2018-05-02T12:23:30.423Z,992.02
2018-05-02T12:24:30.470Z,991.96
2018-05-02T12:25:30.521Z,992.07
2018-05-02T12:26:30.568Z,992.21
2018-05-02T12:27:30.615Z,992.27
2018-05-02T12:28:30.663Z,992.14